createdAt,value
2018-07-31T00:01:47.864Z,99387.14
2018-07-31T00:04:18.383Z,99388.55
2018-07-31T00:06:48.914Z,99386.73
2018-07-31T00:09:19.298Z,99389.17
2018-07-31T00:11:49.820Z,99397.80
2018-07-31T00:14:20.250Z,99390.13
2018-07-31T00:16:50.748Z,99395.24
2018-07-31T00:19:21.220Z,99388.90
2018-07-31T00:21:51.590Z,99388.22
2018-07-31T00:24:22.151Z,99389.86
2018-07-31T00:26:52.587Z,99384.11
2018-07-31T00:29:22.991Z,99379.86
2018-07-31T00:31:53.384Z,99381.34
2018-07-31T00:34:23.816Z,99382.98
2018-07-31T00:36:54.283Z,99380.70
2018-07-31T00:39:24.655Z,99385.11
2018-07-31T00:41:55.078Z,99385.70
2018-07-31T00:44:25.550Z,99382.30
2018-07-31T00:46:55.975Z,99386.28
2018-07-31T00:49:26.350Z,99382.78
2018-07-31T00:51:56.852Z,99381.02
2018-07-31T00:54:27.276Z,99381.20
2018-07-31T00:56:57.659Z,99385.02
2018-07-31T00:59:28.128Z,99382.20
2018-07-31T01:01:58.664Z,99387.52
2018-07-31T01:04:29.156Z,99383.36
2018-07-31T01:06:59.604Z,99380.24
2018-07-31T01:09:30.085Z,99389.43
2018-07-31T01:12:00.591Z,99385.98
2018-07-31T01:14:31.096Z,99387.61
2018-07-31T01:17:01.615Z,99388.75
2018-07-31T01:19:32.035Z,99393.20
2018-07-31T01:22:02.580Z,99383.69
2018-07-31T01:24:33.042Z,99386.28
2018-07-31T01:27:03.490Z,99385.07
2018-07-31T01:29:33.899Z,99378.41
2018-07-31T01:32:04.356Z,99383.52
2018-07-31T01:34:34.854Z,99295.93
2018-07-31T01:37:05.315Z,99372.72
2018-07-31T01:39:35.767Z,99369.84
2018-07-31T01:42:06.301Z,99374.80
2018-07-31T01:44:36.735Z,99375.59
2018-07-31T01:47:07.242Z,99373.73
2018-07-31T01:49:37.684Z,99385.02
2018-07-31T01:52:08.244Z,99380.17
2018-07-31T01:54:38.652Z,99379.05
2018-07-31T01:57:09.243Z,99381.34
2018-07-31T01:59:39.818Z,99379.59
2018-07-31T02:02:10.292Z,99383.06
2018-07-31T02:04:40.709Z,99375.48
2018-07-31T02:07:11.148Z,99384.16
2018-07-31T02:09:41.599Z,99390.28
2018-07-31T02:12:11.982Z,99382.14
2018-07-31T02:14:42.498Z,99381.34
2018-07-31T02:17:12.915Z,99380.12
2018-07-31T02:19:43.395Z,99381.15
2018-07-31T02:22:13.827Z,99376.27
2018-07-31T02:24:44.311Z,99373.50
2018-07-31T02:27:14.743Z,99267.52
2018-07-31T02:29:50.183Z,99377.27
2018-07-31T02:32:20.647Z,99379.23
2018-07-31T02:34:51.089Z,99377.85
2018-07-31T02:37:21.614Z,99377.02
2018-07-31T02:39:51.995Z,99380.52
2018-07-31T02:42:22.429Z,99384.19
2018-07-31T02:44:52.862Z,99386.94
2018-07-31T02:47:23.338Z,99384.84
2018-07-31T02:49:53.837Z,99387.11
2018-07-31T02:52:24.399Z,99391.16
2018-07-31T02:54:54.892Z,99391.73
2018-07-31T02:57:25.300Z,99397.48
2018-07-31T02:59:55.724Z,99395.14
2018-07-31T03:02:26.107Z,99392.42
2018-07-31T03:04:56.590Z,99393.91
2018-07-31T03:07:26.976Z,99386.66
2018-07-31T03:09:57.534Z,99393.16
2018-07-31T03:12:28.020Z,99396.09
2018-07-31T03:14:58.477Z,99391.95
2018-07-31T03:17:28.890Z,99397.20
2018-07-31T03:19:59.263Z,99396.64
2018-07-31T03:22:29.751Z,99399.83
2018-07-31T03:25:00.250Z,99393.83
2018-07-31T03:27:30.694Z,99399.20
2018-07-31T03:30:01.104Z,99407.70
2018-07-31T03:32:31.533Z,99412.85
2018-07-31T03:35:01.960Z,99411.05
2018-07-31T03:37:32.480Z,99416.64
2018-07-31T03:40:02.943Z,99415.69
2018-07-31T03:42:33.356Z,99413.55
2018-07-31T03:45:03.940Z,99416.91
2018-07-31T03:47:34.549Z,99422.86
2018-07-31T03:50:05.266Z,99418.38
2018-07-31T03:52:35.659Z,99424.40
2018-07-31T03:55:06.244Z,99433.56
2018-07-31T03:57:36.675Z,99428.58
2018-07-31T04:00:07.732Z,99431.34
2018-07-31T04:02:38.183Z,99434.08
2018-07-31T04:05:08.679Z,99430.80
2018-07-31T04:07:39.164Z,99427.19
2018-07-31T04:10:09.559Z,99432.08
2018-07-31T04:12:39.996Z,99430.66
2018-07-31T04:15:10.411Z,99421.34
2018-07-31T04:17:40.841Z,99426.02
2018-07-31T04:20:11.243Z,99416.81
2018-07-31T04:22:41.753Z,99425.38
2018-07-31T04:25:12.181Z,99421.02
2018-07-31T04:27:42.691Z,99423.88
2018-07-31T04:30:13.212Z,99421.20
2018-07-31T04:32:43.636Z,99424.45
2018-07-31T04:35:14.136Z,99425.58
2018-07-31T04:37:44.587Z,99422.02
2018-07-31T04:40:15.077Z,99420.53
2018-07-31T04:42:45.495Z,99422.88
2018-07-31T04:45:15.987Z,99419.14
2018-07-31T04:47:46.469Z,99425.11
2018-07-31T04:50:16.865Z,99422.11
2018-07-31T04:52:47.293Z,99424.58
2018-07-31T04:55:17.826Z,99426.11
2018-07-31T04:57:48.309Z,99425.69
2018-07-31T05:00:18.831Z,99432.98
2018-07-31T05:02:49.196Z,99431.55
2018-07-31T05:05:19.730Z,99429.77
2018-07-31T05:07:50.115Z,99430.59
2018-07-31T05:10:20.574Z,99437.88
2018-07-31T05:12:51.043Z,99434.36
2018-07-31T05:15:21.698Z,99438.52
2018-07-31T05:17:52.245Z,99441.06
2018-07-31T05:20:22.664Z,99444.05
2018-07-31T05:22:53.689Z,99449.59
2018-07-31T05:25:24.249Z,99441.16
2018-07-31T05:27:54.631Z,99444.73
2018-07-31T05:30:25.124Z,99448.75
2018-07-31T05:32:55.657Z,99449.55
2018-07-31T05:35:26.140Z,99454.68
2018-07-31T05:37:56.677Z,99454.90
2018-07-31T05:40:27.145Z,99453.10
2018-07-31T05:42:57.575Z,99457.88
2018-07-31T05:45:28.032Z,99458.06
2018-07-31T05:47:58.395Z,99465.02
2018-07-31T05:50:28.850Z,99469.80
2018-07-31T05:52:59.209Z,99467.82
2018-07-31T05:55:29.633Z,99460.30
2018-07-31T05:58:00.010Z,99465.35
2018-07-31T06:00:30.507Z,99464.25
2018-07-31T06:03:00.919Z,99463.55
2018-07-31T06:05:31.681Z,99468.06
2018-07-31T06:08:02.079Z,99468.98
2018-07-31T06:10:32.560Z,99461.94
2018-07-31T06:13:02.966Z,99464.80
2018-07-31T06:15:33.420Z,99464.35
2018-07-31T06:18:03.867Z,99462.73
2018-07-31T06:20:34.281Z,99466.67
2018-07-31T06:23:04.789Z,99465.77
2018-07-31T06:25:35.386Z,99466.70
2018-07-31T06:28:05.939Z,99470.91
2018-07-31T06:30:36.400Z,99474.38
2018-07-31T06:33:06.942Z,99475.98
2018-07-31T06:35:37.315Z,99476.05
2018-07-31T06:38:07.917Z,99479.47
2018-07-31T06:40:38.363Z,99476.73
2018-07-31T06:43:08.891Z,99483.80
2018-07-31T06:45:39.416Z,99480.96
2018-07-31T06:48:09.944Z,99475.55
2018-07-31T06:50:40.443Z,99470.19
2018-07-31T06:53:10.971Z,99473.50
2018-07-31T06:55:41.516Z,99467.53
2018-07-31T06:58:12.191Z,99466.34
2018-07-31T07:00:42.689Z,99468.54
2018-07-31T07:03:13.160Z,99469.56
2018-07-31T07:05:43.643Z,99469.29
2018-07-31T07:08:14.086Z,99475.41
2018-07-31T07:10:44.482Z,99474.89
2018-07-31T07:13:14.975Z,99474.63
2018-07-31T07:15:45.531Z,99475.14
2018-07-31T07:18:16.168Z,99471.98
2018-07-31T07:20:46.787Z,99472.11
2018-07-31T07:23:17.344Z,99473.20
2018-07-31T07:25:47.928Z,99473.22
2018-07-31T07:28:18.406Z,99478.94
2018-07-31T07:30:48.984Z,99480.04
2018-07-31T07:33:19.480Z,99485.58
2018-07-31T07:35:49.998Z,99486.64
2018-07-31T07:38:20.611Z,99486.40
2018-07-31T07:40:51.340Z,99494.72
2018-07-31T07:43:21.836Z,99493.62
2018-07-31T07:45:52.375Z,99423.44
2018-07-31T07:48:22.979Z,99499.30
2018-07-31T07:50:54.119Z,99506.76
2018-07-31T07:53:24.730Z,99495.42
2018-07-31T07:55:55.324Z,99498.86
2018-07-31T07:58:25.816Z,99498.27
2018-07-31T08:00:56.355Z,99505.77
2018-07-31T08:03:26.907Z,99506.99
2018-07-31T08:05:57.439Z,99505.44
2018-07-31T08:08:28.525Z,99504.69
2018-07-31T08:11:00.291Z,99502.50
2018-07-31T08:13:31.046Z,99513.00
2018-07-31T08:16:01.483Z,99509.84
2018-07-31T08:18:32.143Z,99506.75
2018-07-31T08:21:02.681Z,99501.11
2018-07-31T08:23:33.209Z,99501.17
2018-07-31T08:26:03.711Z,99502.06
2018-07-31T08:28:34.252Z,99497.44
2018-07-31T08:31:04.779Z,99511.42
2018-07-31T08:33:35.415Z,99505.16
2018-07-31T08:36:06.047Z,99503.08
2018-07-31T08:38:36.591Z,99506.64
2018-07-31T08:41:07.127Z,99502.16
2018-07-31T08:43:37.662Z,99504.23
2018-07-31T08:46:08.256Z,99491.98
2018-07-31T08:48:38.811Z,99499.52
2018-07-31T08:51:09.465Z,99502.45
2018-07-31T08:53:39.999Z,99499.46
2018-07-31T08:56:10.487Z,99499.40
2018-07-31T08:58:41.164Z,99493.59
2018-07-31T09:01:11.591Z,99493.59
2018-07-31T09:03:42.112Z,99489.14
2018-07-31T09:06:12.530Z,99483.25
2018-07-31T09:08:43.068Z,99486.48
2018-07-31T09:11:13.442Z,99477.98
2018-07-31T09:13:43.926Z,99483.32
2018-07-31T09:16:14.335Z,99486.05
2018-07-31T09:18:44.819Z,99481.38
2018-07-31T09:21:15.259Z,99489.53
2018-07-31T09:23:45.764Z,99491.59
2018-07-31T09:26:16.176Z,99491.80
2018-07-31T09:28:46.666Z,99492.59
2018-07-31T09:31:19.022Z,99391.97
2018-07-31T09:33:49.523Z,99496.47
2018-07-31T09:36:20.099Z,99495.91
2018-07-31T09:38:50.840Z,99496.34
2018-07-31T09:41:21.885Z,99495.70
2018-07-31T09:43:52.579Z,99495.39
2018-07-31T09:46:23.148Z,99498.27
2018-07-31T09:48:54.381Z,99494.20
2018-07-31T09:51:24.814Z,99487.12
2018-07-31T09:53:55.318Z,99483.58
2018-07-31T09:56:25.723Z,99479.91
2018-07-31T09:58:56.521Z,99477.60
2018-07-31T10:01:26.951Z,99475.53
2018-07-31T10:03:57.412Z,99475.28
2018-07-31T10:06:27.791Z,99469.36
2018-07-31T10:08:58.319Z,99466.11
2018-07-31T10:11:28.807Z,99384.89
2018-07-31T10:13:59.342Z,99471.44
2018-07-31T10:16:29.744Z,99476.92
2018-07-31T10:19:00.415Z,99483.28
2018-07-31T10:21:30.827Z,99485.64
2018-07-31T10:24:01.400Z,99486.34
2018-07-31T10:26:31.999Z,99478.16
2018-07-31T10:29:02.498Z,99486.51
2018-07-31T10:31:33.032Z,99479.22
2018-07-31T10:34:03.684Z,99476.30
2018-07-31T10:36:34.188Z,99471.14
2018-07-31T10:39:06.460Z,99469.91
2018-07-31T10:41:37.155Z,99470.25
2018-07-31T10:44:07.816Z,99471.11
2018-07-31T10:46:38.242Z,99468.20
2018-07-31T10:49:08.839Z,99465.98
2018-07-31T10:51:39.290Z,99462.87
2018-07-31T10:54:09.988Z,99465.98
2018-07-31T10:56:40.658Z,99472.31
2018-07-31T10:59:11.263Z,99464.23
2018-07-31T11:01:41.716Z,99462.84
2018-07-31T11:04:12.335Z,99456.27
2018-07-31T11:06:42.802Z,99463.98
2018-07-31T11:09:13.254Z,99462.52
2018-07-31T11:11:43.793Z,99460.69
2018-07-31T11:14:14.354Z,99470.05
2018-07-31T11:16:45.078Z,99470.56
2018-07-31T11:19:15.483Z,99478.16
2018-07-31T11:21:45.994Z,99483.47
2018-07-31T11:24:16.448Z,99486.64
2018-07-31T11:26:47.044Z,99474.88
2018-07-31T11:29:17.574Z,99484.09
2018-07-31T11:31:48.044Z,99481.01
2018-07-31T11:34:18.603Z,99483.03
2018-07-31T11:36:49.188Z,99486.51
2018-07-31T11:39:19.687Z,99494.10
2018-07-31T11:41:50.277Z,99496.11
2018-07-31T11:44:20.735Z,99512.24
2018-07-31T11:46:51.162Z,99514.38
2018-07-31T11:49:21.646Z,99508.39
2018-07-31T11:51:52.213Z,99498.34
2018-07-31T11:54:22.742Z,99495.45
2018-07-31T11:56:53.411Z,99493.38
2018-07-31T11:59:23.920Z,99487.67
2018-07-31T12:01:54.556Z,99488.83
2018-07-31T12:04:25.040Z,99494.84
2018-07-31T12:06:55.467Z,99486.57
2018-07-31T12:09:26.000Z,99491.00
2018-07-31T12:11:56.485Z,99487.08
2018-07-31T12:14:26.923Z,99484.67
2018-07-31T12:16:58.658Z,99485.61
2018-07-31T12:19:29.064Z,99493.81
2018-07-31T12:21:59.596Z,99501.11
2018-07-31T12:24:29.980Z,99511.52
2018-07-31T12:27:00.471Z,99500.30
2018-07-31T12:29:31.036Z,99500.22
2018-07-31T12:32:01.533Z,99489.61
2018-07-31T12:34:32.052Z,99487.70
2018-07-31T12:37:02.456Z,99485.33
2018-07-31T12:39:32.920Z,99489.41
2018-07-31T12:42:03.340Z,99497.87
2018-07-31T12:44:33.767Z,99492.03
2018-07-31T12:47:04.444Z,99483.51
2018-07-31T12:49:34.975Z,99478.09
2018-07-31T12:52:05.449Z,99467.37
2018-07-31T12:54:35.924Z,99465.47
2018-07-31T12:57:06.511Z,99458.95
2018-07-31T12:59:36.946Z,99468.37
2018-07-31T13:02:07.403Z,99464.67
2018-07-31T13:04:37.843Z,99461.28
2018-07-31T13:07:08.255Z,99456.80
2018-07-31T13:09:39.090Z,99452.13
2018-07-31T13:12:10.594Z,99453.57
2018-07-31T13:14:41.144Z,99447.56
2018-07-31T13:17:13.763Z,99445.36
2018-07-31T13:19:44.547Z,99448.62
2018-07-31T13:22:15.164Z,99450.08
2018-07-31T13:24:45.736Z,99445.45
2018-07-31T13:27:16.211Z,99440.50
2018-07-31T13:29:46.985Z,99430.17
2018-07-31T13:32:17.572Z,99319.65
2018-07-31T13:34:48.156Z,99438.11
2018-07-31T13:37:18.671Z,99434.39
2018-07-31T13:39:49.199Z,99440.41
2018-07-31T13:42:19.823Z,99436.44
2018-07-31T13:44:50.401Z,99441.39
2018-07-31T13:47:20.931Z,99443.44
2018-07-31T13:49:51.431Z,99446.44
2018-07-31T13:52:22.907Z,99443.22
2018-07-31T13:54:53.413Z,99445.11
2018-07-31T13:57:23.923Z,99444.88
2018-07-31T13:59:54.434Z,99433.34
2018-07-31T14:02:25.012Z,99439.78
2018-07-31T14:04:55.527Z,99430.61
2018-07-31T14:07:25.975Z,99435.02
2018-07-31T14:09:56.500Z,99422.55
2018-07-31T14:12:27.037Z,99421.76
2018-07-31T14:14:57.547Z,99422.49
2018-07-31T14:17:28.125Z,99420.06
2018-07-31T14:19:58.603Z,99421.02
2018-07-31T14:22:29.095Z,99416.27
2018-07-31T14:24:59.566Z,99413.25
2018-07-31T14:27:30.153Z,99409.77
2018-07-31T14:30:00.684Z,99410.01
2018-07-31T14:32:31.589Z,99399.10
2018-07-31T14:35:02.051Z,99404.09
2018-07-31T14:37:32.444Z,99396.20
2018-07-31T14:40:02.868Z,99397.67
2018-07-31T14:42:33.291Z,99403.34
2018-07-31T14:45:03.815Z,99410.27
2018-07-31T14:47:34.221Z,99402.20
2018-07-31T14:50:05.239Z,99406.04
2018-07-31T14:52:35.698Z,99401.60
2018-07-31T14:55:06.422Z,99402.05
2018-07-31T14:57:36.872Z,99399.49
2018-07-31T15:00:08.045Z,99403.69
2018-07-31T15:02:38.509Z,99402.38
2018-07-31T15:05:08.949Z,99398.34
2018-07-31T15:07:39.416Z,99395.69
2018-07-31T15:10:10.132Z,99399.37
2018-07-31T15:12:40.571Z,99385.77
2018-07-31T15:15:10.944Z,99394.16
2018-07-31T15:17:41.487Z,99394.52
2018-07-31T15:20:11.887Z,99398.60
2018-07-31T15:22:42.451Z,99398.76
2018-07-31T15:25:12.858Z,99401.98
2018-07-31T15:27:43.340Z,99403.69
2018-07-31T15:30:13.824Z,99404.85
2018-07-31T15:32:44.300Z,99406.12
2018-07-31T15:35:14.756Z,99398.83
2018-07-31T15:37:45.200Z,99403.77
2018-07-31T15:40:15.604Z,99400.81
2018-07-31T15:42:46.060Z,99407.92
2018-07-31T15:45:16.436Z,99407.20
2018-07-31T15:47:46.871Z,99411.91
2018-07-31T15:50:17.295Z,99413.82
2018-07-31T15:52:47.794Z,99417.64
2018-07-31T15:55:18.284Z,99426.37
2018-07-31T15:57:48.828Z,99425.48
2018-07-31T16:00:19.216Z,99430.19
2018-07-31T16:02:49.644Z,99436.79
2018-07-31T16:05:20.042Z,99438.83
2018-07-31T16:07:50.463Z,99441.56
2018-07-31T16:10:20.851Z,99453.37
2018-07-31T16:12:51.314Z,99463.50
2018-07-31T16:15:21.791Z,99468.84
2018-07-31T16:17:52.215Z,99477.66
2018-07-31T16:20:22.712Z,99485.33
2018-07-31T16:22:53.172Z,99479.31
2018-07-31T16:25:23.628Z,99481.50
2018-07-31T16:27:54.148Z,99473.73
2018-07-31T16:30:24.597Z,99474.53
2018-07-31T16:32:55.060Z,99477.77
2018-07-31T16:35:25.522Z,99477.81
2018-07-31T16:37:55.947Z,99468.32
2018-07-31T16:40:26.384Z,99470.25
2018-07-31T16:42:56.858Z,99475.13
2018-07-31T16:45:27.414Z,99478.47
2018-07-31T16:47:57.921Z,99478.86
2018-07-31T16:50:28.297Z,99482.69
2018-07-31T16:52:58.803Z,99486.58
2018-07-31T16:55:29.234Z,99487.16
2018-07-31T16:57:59.599Z,99486.12
2018-07-31T17:00:30.030Z,99487.28
2018-07-31T17:03:00.407Z,99488.81
2018-07-31T17:05:30.861Z,99489.66
2018-07-31T17:08:01.251Z,99484.59
2018-07-31T17:10:31.736Z,99485.53
2018-07-31T17:13:02.176Z,99484.61
2018-07-31T17:15:32.596Z,99404.73
2018-07-31T17:18:03.015Z,99498.00
2018-07-31T17:20:33.503Z,99506.80
2018-07-31T17:23:03.888Z,99507.75
2018-07-31T17:25:34.331Z,99503.19
2018-07-31T17:28:04.768Z,99506.91
2018-07-31T17:30:35.147Z,99496.27
2018-07-31T17:33:05.596Z,99502.35
2018-07-31T17:35:36.039Z,99511.75
2018-07-31T17:38:06.740Z,99514.66
2018-07-31T17:40:37.143Z,99517.70
2018-07-31T17:43:07.564Z,99527.84
2018-07-31T17:45:37.935Z,99529.13
2018-07-31T17:48:08.400Z,99523.72
2018-07-31T17:50:38.783Z,99532.39
2018-07-31T17:53:09.183Z,99527.09
2018-07-31T17:55:39.585Z,99525.35
2018-07-31T17:58:10.039Z,99515.31
2018-07-31T18:00:40.402Z,99519.05
2018-07-31T18:03:10.854Z,99516.34
2018-07-31T18:05:41.278Z,99522.97
2018-07-31T18:08:11.691Z,99522.17
2018-07-31T18:10:42.075Z,99519.73
2018-07-31T18:13:12.568Z,99522.77
2018-07-31T18:15:43.034Z,99524.05
2018-07-31T18:18:13.507Z,99530.33
2018-07-31T18:20:43.899Z,99530.92
2018-07-31T18:23:14.391Z,99533.80
2018-07-31T18:25:44.759Z,99537.63
2018-07-31T18:28:15.216Z,99543.16
2018-07-31T18:30:45.717Z,99542.95
2018-07-31T18:33:16.151Z,99544.80
2018-07-31T18:35:46.564Z,99455.50
2018-07-31T18:38:17.082Z,99550.48
2018-07-31T18:40:47.532Z,99559.61
2018-07-31T18:43:17.921Z,99558.00
2018-07-31T18:45:48.520Z,99562.38
2018-07-31T18:48:18.968Z,99557.86
2018-07-31T18:50:49.391Z,99552.74
2018-07-31T18:53:19.806Z,99552.88
2018-07-31T18:55:50.200Z,99556.11
2018-07-31T18:58:20.567Z,99557.91
2018-07-31T19:00:51.025Z,99558.13
2018-07-31T19:03:21.534Z,99568.55
2018-07-31T19:05:51.923Z,99564.44
2018-07-31T19:08:22.387Z,99570.45
2018-07-31T19:10:52.793Z,99570.88
2018-07-31T19:13:23.195Z,99568.09
2018-07-31T19:15:53.650Z,99565.19
2018-07-31T19:18:24.151Z,99557.91
2018-07-31T19:20:54.669Z,99556.52
2018-07-31T19:23:25.109Z,99553.84
2018-07-31T19:25:55.580Z,99550.70
2018-07-31T19:28:25.943Z,99549.94
2018-07-31T19:30:56.351Z,99553.55
2018-07-31T19:33:26.873Z,99554.11
2018-07-31T19:35:57.267Z,99556.08
2018-07-31T19:38:27.715Z,99565.45
2018-07-31T19:40:58.160Z,99561.27
2018-07-31T19:43:28.621Z,99564.05
2018-07-31T19:45:59.013Z,99559.41
2018-07-31T19:48:29.439Z,99556.50
2018-07-31T19:50:59.828Z,99550.31
2018-07-31T19:53:30.252Z,99545.06
2018-07-31T19:56:00.702Z,99533.27
2018-07-31T19:58:31.180Z,99541.59
2018-07-31T20:01:01.681Z,99541.95
2018-07-31T20:03:32.145Z,99541.59
2018-07-31T20:06:02.639Z,99542.77
2018-07-31T20:08:33.064Z,99543.23
2018-07-31T20:11:03.552Z,99543.80
2018-07-31T20:13:33.933Z,99539.52
2018-07-31T20:16:05.054Z,99549.45
2018-07-31T20:18:35.731Z,99555.25
2018-07-31T20:21:06.154Z,99552.22
2018-07-31T20:23:36.588Z,99557.77
2018-07-31T20:26:07.224Z,99558.61
2018-07-31T20:28:37.660Z,99566.80
2018-07-31T20:31:08.104Z,99557.64
2018-07-31T20:33:38.657Z,99570.45
2018-07-31T20:36:09.096Z,99569.40
2018-07-31T20:38:39.603Z,99573.92
2018-07-31T20:41:10.012Z,99567.17
2018-07-31T20:43:40.404Z,99562.15
2018-07-31T20:46:10.872Z,99562.00
2018-07-31T20:48:41.238Z,99558.39
2018-07-31T20:51:11.707Z,99558.72
2018-07-31T20:53:42.247Z,99562.88
2018-07-31T20:56:12.771Z,99563.68
2018-07-31T20:58:43.243Z,99565.50
2018-07-31T21:01:13.900Z,99566.13
2018-07-31T21:03:44.370Z,99568.13
2018-07-31T21:06:14.845Z,99570.23
2018-07-31T21:08:45.286Z,99566.66
2018-07-31T21:11:15.923Z,99571.77
2018-07-31T21:13:46.366Z,99574.06
2018-07-31T21:16:16.858Z,99576.52
2018-07-31T21:18:47.218Z,99577.23
2018-07-31T21:21:17.700Z,99480.05
2018-07-31T21:23:48.208Z,99574.87
2018-07-31T21:26:18.616Z,99570.55
2018-07-31T21:28:48.993Z,99565.56
2018-07-31T21:31:19.417Z,99556.81
2018-07-31T21:33:49.915Z,99560.59
2018-07-31T21:36:20.323Z,99561.94
2018-07-31T21:38:50.740Z,99567.91
2018-07-31T21:41:21.229Z,99565.56
2018-07-31T21:43:51.812Z,99560.33
2018-07-31T21:46:22.335Z,99554.36
2018-07-31T21:48:52.865Z,99554.89
2018-07-31T21:51:23.305Z,99562.19
2018-07-31T21:53:53.719Z,99559.37
2018-07-31T21:56:24.076Z,99564.55
2018-07-31T21:58:54.507Z,99569.61
2018-07-31T22:01:24.927Z,99562.02
2018-07-31T22:03:55.433Z,99555.47
2018-07-31T22:06:25.884Z,99560.78
2018-07-31T22:08:56.298Z,99553.88
2018-07-31T22:11:26.687Z,99554.75
2018-07-31T22:13:57.166Z,99555.44
2018-07-31T22:16:27.556Z,99544.95
2018-07-31T22:18:58.039Z,99545.53
2018-07-31T22:21:28.414Z,99545.63
2018-07-31T22:23:58.850Z,99542.86
2018-07-31T22:26:29.288Z,99540.03
2018-07-31T22:28:59.715Z,99542.16
2018-07-31T22:31:30.084Z,99540.67
2018-07-31T22:34:00.575Z,99532.05
2018-07-31T22:36:30.947Z,99537.20
2018-07-31T22:39:01.373Z,99532.95
2018-07-31T22:41:31.850Z,99526.03
2018-07-31T22:44:02.218Z,99526.80
2018-07-31T22:46:32.671Z,99526.22
2018-07-31T22:49:03.227Z,99527.19
2018-07-31T22:51:33.740Z,99528.51
2018-07-31T22:54:04.230Z,99531.02
2018-07-31T22:56:34.731Z,99522.81
2018-07-31T22:59:05.159Z,99528.86
2018-07-31T23:01:35.631Z,99530.00
2018-07-31T23:04:06.101Z,99534.31
2018-07-31T23:06:36.543Z,99534.43
2018-07-31T23:09:09.500Z,99537.91
2018-07-31T23:11:39.959Z,99541.83
2018-07-31T23:14:10.537Z,99544.41
2018-07-31T23:16:40.970Z,99544.90
2018-07-31T23:19:11.373Z,99543.20
2018-07-31T23:21:41.827Z,99538.16
2018-07-31T23:24:12.264Z,99535.89
2018-07-31T23:26:42.724Z,99536.92
2018-07-31T23:29:13.146Z,99537.75
2018-07-31T23:31:43.608Z,99539.78
2018-07-31T23:34:14.070Z,99547.92
2018-07-31T23:36:44.572Z,99545.31
2018-07-31T23:39:15.016Z,99539.48
2018-07-31T23:41:45.435Z,99534.25
2018-07-31T23:44:15.812Z,99541.83
2018-07-31T23:46:46.308Z,99545.97
2018-07-31T23:49:16.719Z,99541.28
2018-07-31T23:51:47.176Z,99541.52
2018-07-31T23:54:17.565Z,99543.07
2018-07-31T23:56:48.019Z,99541.75
2018-07-31T23:59:18.443Z,99544.77
